createdAt,value
2023-01-07T00:00:54.357Z,7.23
2023-01-07T00:03:21.230Z,5.77
2023-01-07T00:05:48.064Z,8.60
2023-01-07T00:08:14.834Z,4.73
2023-01-07T00:10:41.653Z,10.20
2023-01-07T00:13:08.563Z,8.57
2023-01-07T00:15:35.302Z,8.90
2023-01-07T00:18:02.185Z,5.90
2023-01-07T00:20:28.941Z,4.90
2023-01-07T00:22:55.729Z,9.20
2023-01-07T00:25:22.644Z,7.57
2023-01-07T00:27:49.477Z,7.37
2023-01-07T00:30:16.202Z,7.77
2023-01-07T00:33:03.339Z,6.50
2023-01-07T00:35:30.542Z,7.83
2023-01-07T00:37:57.655Z,4.43
2023-01-07T00:40:24.475Z,7.20
2023-01-07T00:43:01.652Z,5.13
2023-01-07T00:45:30.744Z,5.00
2023-01-07T00:47:59.105Z,6.27
2023-01-07T00:50:31.927Z,10.83
2023-01-07T00:52:58.813Z,6.43
2023-01-07T00:55:26.616Z,9.70
2023-01-07T00:57:54.370Z,8.53
2023-01-07T01:00:23.319Z,6.77
2023-01-07T01:02:51.297Z,7.53
2023-01-07T01:05:19.053Z,8.50
2023-01-07T01:07:46.550Z,5.60
2023-01-07T01:10:16.802Z,4.87
2023-01-07T01:12:44.305Z,9.03
2023-01-07T01:15:14.005Z,4.93
2023-01-07T01:17:41.876Z,5.33
2023-01-07T01:20:14.421Z,8.10
2023-01-07T01:22:41.932Z,5.37
2023-01-07T01:25:09.553Z,8.83
2023-01-07T01:27:36.397Z,6.57
2023-01-07T01:30:04.038Z,7.13
2023-01-07T01:32:31.115Z,5.57
2023-01-07T01:34:58.040Z,4.27
2023-01-07T01:37:24.975Z,5.37
2023-01-07T01:39:51.746Z,8.40
2023-01-07T01:42:22.332Z,5.70
2023-01-07T01:44:54.156Z,6.43
2023-01-07T01:47:34.339Z,9.17
2023-01-07T01:50:16.224Z,5.87
2023-01-07T01:53:04.627Z,7.30
2023-01-07T01:55:43.564Z,7.90
2023-01-07T01:58:18.499Z,5.60
2023-01-07T02:00:56.504Z,6.97
2023-01-07T02:03:25.615Z,4.60
2023-01-07T02:05:52.834Z,6.20
2023-01-07T02:12:16.325Z,5.33
2023-01-07T02:15:01.227Z,7.03
2023-01-07T02:17:47.690Z,8.13
2023-01-07T02:20:43.563Z,9.63
2023-01-07T02:23:25.082Z,9.13
2023-01-07T02:26:01.387Z,6.67
2023-01-07T02:28:38.735Z,6.23
2023-01-07T02:31:08.570Z,4.43
2023-01-07T02:33:52.443Z,6.10
2023-01-07T02:36:56.330Z,4.80
2023-01-07T02:39:31.612Z,4.80
2023-01-07T02:42:06.783Z,5.67
2023-01-07T02:44:45.524Z,5.00
2023-01-07T02:47:31.408Z,3.33
2023-01-07T02:49:58.203Z,6.23
2023-01-07T02:52:27.174Z,6.27
2023-01-07T02:55:06.057Z,8.50
2023-01-07T02:57:48.090Z,5.30
2023-01-07T03:00:42.567Z,4.73
2023-01-07T03:03:34.405Z,10.90
2023-01-07T03:06:04.211Z,4.97
2023-01-07T03:08:56.050Z,4.40
2023-01-07T03:11:27.257Z,5.13
2023-01-07T03:14:51.704Z,7.53
2023-01-07T03:17:28.071Z,6.13
2023-01-07T03:19:59.671Z,6.57
2023-01-07T03:22:30.231Z,4.30
2023-01-07T03:24:59.601Z,6.97
2023-01-07T03:27:29.020Z,9.57
2023-01-07T03:29:56.347Z,7.80
2023-01-07T03:32:52.358Z,8.03
2023-01-07T03:35:21.796Z,5.27
2023-01-07T03:37:50.365Z,7.63
2023-01-07T03:40:19.403Z,5.20
2023-01-07T03:42:49.036Z,6.40
2023-01-07T03:45:20.873Z,6.10
2023-01-07T03:47:50.942Z,7.00
2023-01-07T03:50:18.407Z,7.00
2023-01-07T03:52:46.313Z,7.63
2023-01-07T03:55:13.014Z,8.37
2023-01-07T03:57:39.762Z,7.20
2023-01-07T04:00:08.985Z,6.87
2023-01-07T04:02:35.881Z,8.60
2023-01-07T04:05:03.078Z,6.40
2023-01-07T04:07:29.853Z,4.67
2023-01-07T04:09:56.593Z,7.53
2023-01-07T04:12:23.400Z,6.17
2023-01-07T04:14:51.259Z,9.17
2023-01-07T04:17:19.116Z,7.57
2023-01-07T04:19:45.900Z,5.57
2023-01-07T04:22:12.887Z,7.37
2023-01-07T04:24:40.902Z,5.77
2023-01-07T04:27:07.701Z,7.20
2023-01-07T04:29:34.504Z,6.93
2023-01-07T04:32:01.248Z,6.30
2023-01-07T04:34:28.569Z,7.17
2023-01-07T04:36:55.329Z,6.03
2023-01-07T04:39:22.105Z,6.07
2023-01-07T04:41:48.852Z,6.27
2023-01-07T04:44:17.524Z,6.33
2023-01-07T04:46:44.832Z,8.27
2023-01-07T04:49:13.643Z,5.13
2023-01-07T04:51:55.929Z,6.37
2023-01-07T04:54:22.681Z,6.60
2023-01-07T04:56:49.715Z,9.27
2023-01-07T04:59:16.470Z,5.83
2023-01-07T05:01:43.422Z,7.23
2023-01-07T05:04:10.338Z,8.57
2023-01-07T05:06:37.093Z,5.83
2023-01-07T05:09:03.954Z,5.73
2023-01-07T05:11:30.813Z,4.73
2023-01-07T05:14:00.577Z,4.73
2023-01-07T05:16:27.453Z,7.30
2023-01-07T05:18:54.192Z,7.63
2023-01-07T05:21:21.047Z,6.70
2023-01-07T05:23:47.931Z,6.67
2023-01-07T05:26:14.728Z,10.10
2023-01-07T05:28:41.521Z,5.83
2023-01-07T05:31:08.316Z,6.27
2023-01-07T05:33:35.136Z,5.73
2023-01-07T05:36:01.938Z,5.00
2023-01-07T05:38:28.829Z,5.00
2023-01-07T05:40:57.433Z,4.23
2023-01-07T05:43:24.212Z,4.77
2023-01-07T05:45:51.024Z,5.07
2023-01-07T05:48:17.904Z,7.90
2023-01-07T05:50:44.713Z,5.43
2023-01-07T05:53:11.507Z,10.93
2023-01-07T05:55:41.410Z,5.50
2023-01-07T05:58:08.442Z,5.20
2023-01-07T06:00:36.652Z,6.77
2023-01-07T06:03:04.782Z,6.73
2023-01-07T06:05:32.634Z,7.80
2023-01-07T06:07:59.515Z,7.73
2023-01-07T06:10:26.268Z,7.00
2023-01-07T06:12:53.366Z,6.63
2023-01-07T06:15:20.209Z,9.37
2023-01-07T06:17:47.060Z,5.03
2023-01-07T06:20:15.159Z,9.03
2023-01-07T06:22:43.348Z,6.13
2023-01-07T06:25:11.848Z,6.90
2023-01-07T06:27:40.776Z,10.23
2023-01-07T06:30:09.326Z,5.90
2023-01-07T06:32:40.641Z,6.30
2023-01-07T06:35:09.164Z,7.80
2023-01-07T06:37:36.201Z,5.57
2023-01-07T06:40:03.592Z,5.97
2023-01-07T06:42:30.573Z,10.77
2023-01-07T06:44:57.453Z,6.07
2023-01-07T06:47:25.421Z,8.53
2023-01-07T06:49:52.990Z,6.93
2023-01-07T06:52:19.774Z,7.03
2023-01-07T06:54:48.472Z,6.97
2023-01-07T06:57:15.624Z,7.63
2023-01-07T06:59:42.463Z,5.70
2023-01-07T07:02:24.191Z,6.70
2023-01-07T07:04:51.476Z,7.37
2023-01-07T07:07:18.874Z,5.27
2023-01-07T07:09:46.170Z,7.00
2023-01-07T07:12:13.437Z,9.70
2023-01-07T07:14:40.465Z,7.57
2023-01-07T07:17:07.317Z,5.83
2023-01-07T07:19:34.265Z,4.00
2023-01-07T07:22:03.218Z,4.67
2023-01-07T07:24:30.694Z,9.63
2023-01-07T07:26:57.595Z,5.93
2023-01-07T07:29:24.340Z,7.07
2023-01-07T07:31:51.073Z,9.30
2023-01-07T07:34:17.847Z,9.00
2023-01-07T07:36:44.577Z,7.53
2023-01-07T07:39:12.107Z,7.37
2023-01-07T07:41:38.914Z,8.57
2023-01-07T07:44:05.678Z,6.97
2023-01-07T07:46:32.595Z,9.27
2023-01-07T07:48:59.390Z,8.77
2023-01-07T07:51:26.366Z,6.20
2023-01-07T07:53:53.101Z,7.90
2023-01-07T07:56:19.968Z,6.47
2023-01-07T07:58:46.690Z,7.53
2023-01-07T08:01:13.544Z,9.53
2023-01-07T08:03:40.428Z,7.27
2023-01-07T08:06:07.555Z,8.43
2023-01-07T08:08:34.256Z,5.83
2023-01-07T08:11:04.020Z,4.87
2023-01-07T08:13:31.359Z,9.37
2023-01-07T08:15:58.449Z,7.07
2023-01-07T08:18:25.329Z,8.23
2023-01-07T08:20:52.121Z,7.13
2023-01-07T08:23:18.882Z,8.70
2023-01-07T08:25:45.700Z,4.17
2023-01-07T08:28:12.579Z,7.87
2023-01-07T08:30:39.411Z,5.77
2023-01-07T08:33:07.711Z,8.13
2023-01-07T08:35:34.851Z,10.00
2023-01-07T08:38:05.577Z,10.20
2023-01-07T08:40:32.745Z,7.30
2023-01-07T08:43:01.035Z,7.60
2023-01-07T08:45:28.529Z,9.30
2023-01-07T08:47:58.078Z,6.50
2023-01-07T08:50:26.417Z,13.00
2023-01-07T08:52:53.228Z,4.73
2023-01-07T08:55:20.418Z,5.90
2023-01-07T08:57:47.579Z,7.43
2023-01-07T09:00:16.284Z,11.13
2023-01-07T09:02:43.643Z,5.70
2023-01-07T09:05:10.848Z,8.03
2023-01-07T09:07:38.078Z,7.37
2023-01-07T09:10:05.312Z,6.50
2023-01-07T09:12:32.227Z,8.03
2023-01-07T09:14:58.932Z,7.50
2023-01-07T09:17:25.811Z,5.20
2023-01-07T09:19:54.210Z,7.63
2023-01-07T09:22:22.039Z,5.80
2023-01-07T09:24:49.847Z,5.97
2023-01-07T09:27:17.585Z,8.53
2023-01-07T09:29:44.437Z,5.63
2023-01-07T09:32:11.359Z,6.43
2023-01-07T09:34:38.533Z,8.33
2023-01-07T09:37:06.449Z,6.80
2023-01-07T09:39:33.399Z,6.63
2023-01-07T09:42:25.332Z,5.87
2023-01-07T09:45:18.802Z,6.27
2023-01-07T09:47:56.223Z,5.87
2023-01-07T09:50:38.033Z,3.93
2023-01-07T09:53:11.552Z,4.47
2023-01-07T09:56:10.621Z,10.47
2023-01-07T09:58:28.082Z,5.63
2023-01-07T10:01:22.734Z,5.77
2023-01-07T10:04:14.211Z,5.33
2023-01-07T10:07:04.077Z,7.80
2023-01-07T10:09:39.708Z,3.93
2023-01-07T10:12:32.573Z,7.20
2023-01-07T10:15:11.049Z,5.93
2023-01-07T10:17:57.979Z,7.07
2023-01-07T10:20:50.316Z,5.37
2023-01-07T10:23:24.079Z,5.93
2023-01-07T10:25:53.668Z,7.07
2023-01-07T10:28:44.939Z,6.73
2023-01-07T10:31:21.942Z,4.00
2023-01-07T10:33:50.071Z,6.70
2023-01-07T10:36:31.769Z,4.27
2023-01-07T10:39:28.944Z,5.90
2023-01-07T10:42:10.821Z,6.13
2023-01-07T10:44:52.735Z,8.37
2023-01-07T10:47:38.193Z,7.17
2023-01-07T10:50:32.692Z,4.77
2023-01-07T10:53:28.070Z,6.33
2023-01-07T10:56:00.757Z,4.97
2023-01-07T10:58:39.595Z,8.40
2023-01-07T11:01:08.618Z,4.57
2023-01-07T11:03:37.911Z,4.73
2023-01-07T11:06:10.501Z,6.27
2023-01-07T11:08:40.167Z,5.07
2023-01-07T11:11:12.841Z,6.00
2023-01-07T11:13:41.201Z,5.50
2023-01-07T11:16:10.337Z,5.93
2023-01-07T11:18:52.115Z,5.87
2023-01-07T11:21:42.828Z,5.87
2023-01-07T11:24:30.514Z,4.43
2023-01-07T11:27:24.986Z,5.87
2023-01-07T11:30:05.491Z,7.60
2023-01-07T11:32:40.481Z,7.37
2023-01-07T11:35:16.242Z,4.27
2023-01-07T11:37:45.533Z,5.67
2023-01-07T11:40:15.409Z,6.67
2023-01-07T11:43:01.445Z,4.67
2023-01-07T11:46:19.954Z,5.00
2023-01-07T11:48:37.625Z,5.30
2023-01-07T11:51:07.151Z,7.83
2023-01-07T11:53:59.796Z,5.57
2023-01-07T11:56:33.197Z,4.97
2023-01-07T11:59:12.315Z,5.30
2023-01-07T12:01:59.668Z,6.23
2023-01-07T12:04:35.851Z,5.50
2023-01-07T12:07:06.794Z,5.20
2023-01-07T12:09:37.419Z,5.17
2023-01-07T12:12:33.590Z,4.43
2023-01-07T12:15:24.918Z,5.50
2023-01-07T12:18:11.350Z,6.63
2023-01-07T12:21:15.773Z,6.33
2023-01-07T12:24:04.403Z,5.10
2023-01-07T12:27:11.315Z,6.27
2023-01-07T12:29:50.731Z,5.00
2023-01-07T12:32:52.238Z,7.60
2023-01-07T12:35:45.405Z,6.70
2023-01-07T12:38:20.944Z,4.80
2023-01-07T12:41:05.902Z,6.57
2023-01-07T12:43:34.776Z,5.93
2023-01-07T12:46:05.302Z,5.47
2023-01-07T12:48:40.325Z,9.73
2023-01-07T12:51:45.293Z,7.03
2023-01-07T12:54:21.237Z,8.57
2023-01-07T12:56:55.411Z,6.43
2023-01-07T12:59:46.231Z,5.57
2023-01-07T13:02:26.628Z,7.47
2023-01-07T13:05:13.131Z,8.33
2023-01-07T13:07:43.141Z,8.47
2023-01-07T13:10:24.717Z,5.67
2023-01-07T13:12:58.747Z,9.90
2023-01-07T13:15:29.303Z,13.00
2023-01-07T13:17:59.039Z,8.90
2023-01-07T13:20:47.683Z,6.80
2023-01-07T13:23:23.961Z,9.00
2023-01-07T13:26:13.376Z,7.07
2023-01-07T13:28:45.879Z,9.60
2023-01-07T13:31:22.063Z,4.97
2023-01-07T13:34:14.677Z,10.03
2023-01-07T13:36:54.631Z,8.03
2023-01-07T13:39:21.392Z,7.63
2023-01-07T13:42:21.968Z,7.53
2023-01-07T13:45:11.176Z,5.73
2023-01-07T13:47:54.498Z,3.87
2023-01-07T13:50:33.313Z,4.80
2023-01-07T13:53:04.793Z,5.93
2023-01-07T13:55:42.066Z,4.77
2023-01-07T13:58:30.812Z,6.07
2023-01-07T14:01:02.458Z,5.27
2023-01-07T14:03:29.318Z,5.80
2023-01-07T14:06:21.229Z,4.83
2023-01-07T14:09:18.701Z,6.10
2023-01-07T14:12:17.905Z,7.53
2023-01-07T14:15:19.070Z,5.60
2023-01-07T14:18:23.818Z,6.10
2023-01-07T14:21:10.926Z,7.10
2023-01-07T14:24:04.879Z,4.70
2023-01-07T14:26:39.562Z,6.03
2023-01-07T14:29:51.254Z,5.97
2023-01-07T14:32:24.171Z,3.53
2023-01-07T14:35:02.189Z,3.53
2023-01-07T14:37:37.929Z,4.13
2023-01-07T14:40:40.307Z,3.30
2023-01-07T14:43:48.568Z,3.87
2023-01-07T14:46:24.199Z,3.03
2023-01-07T14:49:03.423Z,2.07
2023-01-07T14:51:56.185Z,9.40
2023-01-07T14:54:46.958Z,4.00
2023-01-07T14:57:27.203Z,3.23
2023-01-07T15:00:03.698Z,2.30
2023-01-07T15:02:42.911Z,2.33
2023-01-07T15:05:43.982Z,2.23
2023-01-07T15:08:32.903Z,1.70
2023-01-07T15:11:19.753Z,2.47
2023-01-07T15:14:15.842Z,3.47
2023-01-07T15:16:46.711Z,4.63
2023-01-07T15:19:13.661Z,4.40
2023-01-07T15:21:43.132Z,5.10
2023-01-07T15:24:26.689Z,5.67
2023-01-07T15:27:14.635Z,4.03
2023-01-07T15:30:02.940Z,5.13
2023-01-07T15:32:42.663Z,4.90
2023-01-07T15:35:19.542Z,4.93
2023-01-07T15:38:33.230Z,5.80
2023-01-07T15:41:00.276Z,6.13
2023-01-07T15:43:29.953Z,7.27
2023-01-07T15:46:08.316Z,10.03
2023-01-07T15:48:35.187Z,6.00
2023-01-07T15:51:01.999Z,6.87
2023-01-07T15:53:30.320Z,6.43
2023-01-07T15:56:03.895Z,9.40
2023-01-07T15:58:41.147Z,8.77
2023-01-07T16:01:21.595Z,4.87
2023-01-07T16:03:51.418Z,5.23
2023-01-07T16:06:39.539Z,4.20
2023-01-07T16:09:19.054Z,5.23
2023-01-07T16:11:46.135Z,4.50
2023-01-07T16:14:21.732Z,6.23
2023-01-07T16:16:48.759Z,5.00
2023-01-07T16:19:20.705Z,4.37
2023-01-07T16:21:58.277Z,3.70
2023-01-07T16:24:25.614Z,7.73
2023-01-07T16:27:05.501Z,3.47
2023-01-07T16:29:39.064Z,4.00
2023-01-07T16:32:07.285Z,4.20
2023-01-07T16:34:34.037Z,5.27
2023-01-07T16:37:02.613Z,4.43
2023-01-07T16:39:33.994Z,4.30
2023-01-07T16:42:20.337Z,5.27
2023-01-07T16:44:49.520Z,5.40
2023-01-07T16:47:23.858Z,10.00
2023-01-07T16:49:55.847Z,9.17
2023-01-07T16:52:27.192Z,11.07
2023-01-07T16:54:54.800Z,8.90
2023-01-07T16:57:34.747Z,12.57
2023-01-07T17:00:04.075Z,9.10
2023-01-07T17:02:48.910Z,9.70
2023-01-07T17:05:27.961Z,8.00
2023-01-07T17:07:56.242Z,9.57
2023-01-07T17:10:30.759Z,10.57
2023-01-07T17:13:03.613Z,10.30
2023-01-07T17:15:41.457Z,14.07
2023-01-07T17:18:11.284Z,9.67
2023-01-07T17:20:55.957Z,6.33
2023-01-07T17:23:25.564Z,10.97
2023-01-07T17:26:05.097Z,5.60
2023-01-07T17:28:53.417Z,5.57
2023-01-07T17:31:21.188Z,3.47
2023-01-07T17:33:48.258Z,1.53
2023-01-07T17:36:24.019Z,3.97
2023-01-07T17:38:50.898Z,2.17
2023-01-07T17:41:39.351Z,3.90
2023-01-07T17:44:11.600Z,0.83
2023-01-07T17:46:39.625Z,1.80
2023-01-07T17:49:06.732Z,2.10
2023-01-07T17:51:38.456Z,1.70
2023-01-07T17:54:07.220Z,1.77
2023-01-07T17:56:35.104Z,3.07
2023-01-07T17:59:03.942Z,2.33
2023-01-07T18:01:31.607Z,1.67
2023-01-07T18:03:58.459Z,4.30
2023-01-07T18:06:27.563Z,3.77
2023-01-07T18:08:54.555Z,2.50
2023-01-07T18:11:43.184Z,1.07
2023-01-07T18:14:13.520Z,1.80
2023-01-07T18:16:40.821Z,2.43
2023-01-07T18:19:10.006Z,2.40
2023-01-07T18:21:36.934Z,2.97
2023-01-07T18:24:03.827Z,2.37
2023-01-07T18:26:30.822Z,1.33
2023-01-07T18:28:57.694Z,1.30
2023-01-07T18:31:24.555Z,2.47
2023-01-07T18:33:51.367Z,1.03
2023-01-07T18:36:18.271Z,2.40
2023-01-07T18:38:45.315Z,1.63
2023-01-07T18:41:12.136Z,3.10
2023-01-07T18:43:39.047Z,4.33
2023-01-07T18:46:09.893Z,2.73
2023-01-07T18:48:37.292Z,2.13
2023-01-07T18:51:12.149Z,3.53
2023-01-07T18:53:39.762Z,3.93
2023-01-07T18:56:11.691Z,3.00
2023-01-07T18:58:39.995Z,3.57
2023-01-07T19:01:08.772Z,3.63
2023-01-07T19:03:36.826Z,3.90
2023-01-07T19:06:11.489Z,2.13
2023-01-07T19:08:39.244Z,1.93
2023-01-07T19:11:07.820Z,3.77
2023-01-07T19:13:35.119Z,5.27
2023-01-07T19:16:05.608Z,5.07
2023-01-07T19:18:32.568Z,5.57
2023-01-07T19:21:08.124Z,3.87
2023-01-07T19:23:36.005Z,3.97
2023-01-07T19:26:05.444Z,5.50
2023-01-07T19:28:33.437Z,4.00
2023-01-07T19:31:03.847Z,4.93
2023-01-07T19:33:30.584Z,4.40
2023-01-07T19:36:23.921Z,2.90
2023-01-07T19:38:50.738Z,5.33
2023-01-07T19:41:20.499Z,5.23
2023-01-07T19:43:47.850Z,6.43
2023-01-07T19:46:15.842Z,4.23
2023-01-07T19:48:42.763Z,7.47
2023-01-07T19:51:11.905Z,5.90
2023-01-07T19:53:40.258Z,6.27
2023-01-07T19:56:09.517Z,5.70
2023-01-07T19:58:37.556Z,4.33
2023-01-07T20:01:17.308Z,6.43
2023-01-07T20:03:44.867Z,4.73
2023-01-07T20:06:15.473Z,4.30
2023-01-07T20:08:42.506Z,5.57
2023-01-07T20:11:10.321Z,7.60
2023-01-07T20:13:38.756Z,4.07
2023-01-07T20:16:06.094Z,6.80
2023-01-07T20:18:38.276Z,3.30
2023-01-07T20:21:05.800Z,7.93
2023-01-07T20:23:35.664Z,7.50
2023-01-07T20:26:07.425Z,9.70
2023-01-07T20:28:35.520Z,6.33
2023-01-07T20:31:11.569Z,6.10
2023-01-07T20:33:38.459Z,6.73
2023-01-07T20:36:08.096Z,9.13
2023-01-07T20:38:38.044Z,5.37
2023-01-07T20:41:07.232Z,6.23
2023-01-07T20:43:35.539Z,6.67
2023-01-07T20:46:06.904Z,3.97
2023-01-07T20:48:34.413Z,4.30
2023-01-07T20:51:08.915Z,4.27
2023-01-07T20:53:36.957Z,5.80
2023-01-07T20:56:05.325Z,8.00
2023-01-07T20:58:33.768Z,9.13
2023-01-07T21:01:05.961Z,5.87
2023-01-07T21:03:33.248Z,7.27
2023-01-07T21:06:00.244Z,8.63
2023-01-07T21:08:27.439Z,8.47
2023-01-07T21:10:54.413Z,5.60
2023-01-07T21:13:22.345Z,10.77
2023-01-07T21:15:49.733Z,9.87
2023-01-07T21:18:17.197Z,12.03
2023-01-07T21:20:44.214Z,9.10
2023-01-07T21:23:11.597Z,11.23
2023-01-07T21:25:39.343Z,9.87
2023-01-07T21:28:06.662Z,8.47
2023-01-07T21:30:34.026Z,8.50
2023-01-07T21:33:00.885Z,6.50
2023-01-07T21:35:27.792Z,13.97
2023-01-07T21:37:55.432Z,9.57
2023-01-07T21:40:23.181Z,11.47
2023-01-07T21:42:50.117Z,8.23
2023-01-07T21:45:17.621Z,6.07
2023-01-07T21:47:44.640Z,12.67
2023-01-07T21:50:14.848Z,11.20
2023-01-07T21:52:41.633Z,10.13
2023-01-07T21:55:11.192Z,11.03
2023-01-07T21:57:38.574Z,11.67
2023-01-07T22:00:07.601Z,14.97
2023-01-07T22:02:34.604Z,7.97
2023-01-07T22:05:01.465Z,13.40
2023-01-07T22:07:28.308Z,14.63
2023-01-07T22:09:55.210Z,13.07
2023-01-07T22:12:23.370Z,16.20
2023-01-07T22:14:50.163Z,15.40
2023-01-07T22:17:17.073Z,10.07
2023-01-07T22:19:43.932Z,14.27
2023-01-07T22:22:10.836Z,9.30
2023-01-07T22:24:37.687Z,15.63
2023-01-07T22:27:04.885Z,15.23
2023-01-07T22:29:32.398Z,11.53
2023-01-07T22:31:59.414Z,14.93
2023-01-07T22:34:26.535Z,15.17
2023-01-07T22:37:15.682Z,12.23
2023-01-07T22:39:57.616Z,10.33
2023-01-07T22:42:45.327Z,19.00
2023-01-07T22:45:19.837Z,12.40
2023-01-07T22:47:50.040Z,13.70
2023-01-07T22:50:17.583Z,14.53
2023-01-07T22:52:44.936Z,14.20
2023-01-07T22:55:12.754Z,16.73
2023-01-07T22:57:41.004Z,13.10
2023-01-07T23:00:15.085Z,12.87
2023-01-07T23:02:41.808Z,20.23
2023-01-07T23:05:08.765Z,12.13
2023-01-07T23:07:35.649Z,16.43
2023-01-07T23:10:02.427Z,10.50
2023-01-07T23:12:29.199Z,18.00
2023-01-07T23:14:55.908Z,20.63
2023-01-07T23:17:22.688Z,17.90
2023-01-07T23:19:49.452Z,13.40
2023-01-07T23:22:16.221Z,19.13
2023-01-07T23:24:42.996Z,18.23
2023-01-07T23:27:09.888Z,16.33
2023-01-07T23:29:36.648Z,17.70
2023-01-07T23:32:03.601Z,14.93
2023-01-07T23:34:30.410Z,16.73
2023-01-07T23:36:57.217Z,12.33
2023-01-07T23:39:23.947Z,13.47
2023-01-07T23:41:50.927Z,16.60
2023-01-07T23:44:17.737Z,16.83
2023-01-07T23:46:44.750Z,13.80
2023-01-07T23:49:11.645Z,20.37
2023-01-07T23:51:40.837Z,15.63
2023-01-07T23:54:07.650Z,18.73
2023-01-07T23:56:34.430Z,15.77
2023-01-07T23:59:03.041Z,26.57
